Time;durP1;ratioP1;P1;durP2;ratioP2;P2;SDS_P1;SDS_P2;PMS_P1;PMS_P2;Temp;Humidity;BMP_temperature;BMP_pressure;BME280_temperature;BME280_humidity;BME280_pressure;Samples;Min_cycle;Max_cycle;Signal;HPM_P1;HPM_P2
2022/08/07 00:00:14;;;;;;;5.07;2.95;;;;;;;20.79;62.71;100090.91;4499532;31;34633;-75
2022/08/07 00:02:46;;;;;;;5.60;3.08;;;;;;;21.17;61.43;100092.91;4488161;31;34151;-75
2022/08/07 00:05:13;;;;;;;4.45;3.00;;;;;;;21.38;60.92;100084.25;4492621;31;34650;-75
2022/08/07 00:07:41;;;;;;;4.62;2.85;;;;;;;20.88;62.89;100093.63;4500755;31;34813;-74
2022/08/07 00:10:09;;;;;;;4.87;2.92;;;;;;;20.91;62.15;100093.63;4501462;31;33912;-75
2022/08/07 00:12:59;;;;;;;4.68;3.10;;;;;;;21.53;60.39;100094.03;4499032;31;33635;-75
2022/08/07 00:15:31;;;;;;;4.07;2.67;;;;;;;21.14;61.69;100095.56;4495994;31;34236;-74
2022/08/07 00:18:17;;;;;;;5.43;3.10;;;;;;;21.14;61.21;100087.66;4490019;31;34801;-75
2022/08/07 00:20:53;;;;;;;5.40;2.87;;;;;;;20.89;62.40;100092.75;4498484;31;34626;-74
2022/08/07 00:23:23;;;;;;;4.62;2.92;;;;;;;20.56;63.41;100091.56;4497779;31;33421;-74
2022/08/07 00:25:55;;;;;;;5.65;3.47;;;;;;;21.26;61.45;100078.94;4499303;31;32672;-75
2022/08/07 00:28:28;;;;;;;5.15;3.30;;;;;;;21.11;61.73;100090.25;4499170;31;34041;-75
2022/08/07 00:31:02;;;;;;;5.10;3.22;;;;;;;21.54;60.33;100085.28;4501083;31;34119;-75
2022/08/07 00:33:34;;;;;;;5.32;3.55;;;;;;;20.97;61.92;100093.66;4500019;31;33979;-75
2022/08/07 00:36:03;;;;;;;4.55;3.10;;;;;;;21.69;59.85;100082.72;4500825;31;33485;-75
2022/08/07 00:38:31;;;;;;;4.37;2.70;;;;;;;21.82;58.94;100085.38;4496089;31;34012;-75
2022/08/07 00:41:00;;;;;;;5.00;3.15;;;;;;;22.24;57.55;100094.28;4500941;31;34019;-75
2022/08/07 00:43:28;;;;;;;6.30;3.55;;;;;;;21.02;61.20;100091.09;4499673;31;33322;-75
2022/08/07 00:46:15;;;;;;;5.18;3.28;;;;;;;20.93;61.61;100091.91;4493016;31;34722;-75
2022/08/07 00:48:44;;;;;;;5.97;3.42;;;;;;;21.22;61.18;100080.66;4498317;31;34262;-75
2022/08/07 00:51:16;;;;;;;7.05;3.45;;;;;;;21.75;59.54;100077.47;4497871;31;33444;-75
2022/08/07 00:53:44;;;;;;;7.90;3.37;;;;;;;20.61;63.16;100079.38;4494634;31;34123;-75
2022/08/07 00:56:22;;;;;;;6.50;3.70;;;;;;;20.98;62.18;100084.03;4499482;31;33691;-74
2022/08/07 00:58:57;;;;;;;4.93;3.17;;;;;;;21.16;61.15;100088.53;4500034;31;33930;-75
2022/08/07 01:01:25;;;;;;;6.65;3.67;;;;;;;20.71;62.53;100076.81;4493362;31;34233;-75
2022/08/07 01:03:53;;;;;;;4.95;3.53;;;;;;;20.14;64.90;100071.00;4499744;31;34270;-74
2022/08/07 01:06:28;;;;;;;5.80;3.62;;;;;;;20.44;63.85;100075.69;4486928;31;33830;-74
2022/08/07 01:08:57;;;;;;;6.15;3.60;;;;;;;20.79;63.16;100072.50;4496414;31;34719;-75
2022/08/07 01:11:31;;;;;;;6.47;3.97;;;;;;;20.86;62.88;100079.56;4500801;31;34357;-75
2022/08/07 01:14:19;;;;;;;5.65;3.55;;;;;;;20.12;65.38;100078.00;4497585;31;34353;-75
2022/08/07 01:16:55;;;;;;;5.15;3.45;;;;;;;20.43;64.16;100079.16;4487409;31;34655;-75
2022/08/07 01:19:25;;;;;;;5.07;3.53;;;;;;;20.71;63.56;100082.09;4501257;31;33743;-75
2022/08/07 01:21:59;;;;;;;6.32;3.53;;;;;;;21.52;60.94;100071.22;4501096;31;34626;-75
2022/08/07 01:24:29;;;;;;;6.25;3.85;;;;;;;20.75;63.03;100078.59;4489189;31;34219;-75
2022/08/07 01:26:59;;;;;;;7.78;3.70;;;;;;;20.16;65.16;100075.41;4495215;31;34789;-75
2022/08/07 01:29:27;;;;;;;6.93;3.90;;;;;;;21.02;62.10;100076.16;4497350;31;32315;-75
2022/08/07 01:32:00;;;;;;;8.38;3.87;;;;;;;21.05;62.13;100080.56;4496150;31;34524;-75
2022/08/07 01:34:32;;;;;;;6.10;3.90;;;;;;;20.87;62.98;100069.91;4495105;31;33423;-75
2022/08/07 01:37:01;;;;;;;5.85;3.80;;;;;;;21.53;60.34;100071.19;4499058;31;33986;-75
2022/08/07 01:39:29;;;;;;;4.95;3.45;;;;;;;20.52;63.56;100071.37;4500986;31;33866;-75
2022/08/07 01:42:16;;;;;;;5.25;3.50;;;;;;;20.74;63.14;100069.81;4500695;31;33559;-75
2022/08/07 01:45:05;;;;;;;6.15;4.03;;;;;;;20.55;63.29;100074.03;4501324;31;34183;-75
2022/08/07 01:47:45;;;;;;;5.78;3.72;;;;;;;20.58;63.38;100081.06;4497558;31;33457;-75
2022/08/07 01:50:37;;;;;;;5.62;3.42;;;;;;;21.69;59.96;100073.91;4485813;31;33847;-75
2022/08/07 01:53:10;;;;;;;5.72;3.65;;;;;;;21.39;61.00;100076.38;4500983;31;33931;-75
2022/08/07 01:55:52;;;;;;;5.43;3.60;;;;;;;21.47;60.90;100067.66;4494183;31;33214;-75
2022/08/07 01:58:21;;;;;;;6.47;4.22;;;;;;;21.16;61.74;100070.09;4486868;31;33946;-75
2022/08/07 02:01:00;;;;;;;5.18;3.47;;;;;;;21.59;60.67;100062.44;4489719;31;34589;-75
2022/08/07 02:03:41;;;;;;;6.18;3.72;;;;;;;21.16;62.03;100067.47;4487852;31;34026;-74
2022/08/07 02:06:20;;;;;;;7.32;3.92;;;;;;;20.76;63.44;100077.72;4493973;31;33513;-75
2022/08/07 02:09:02;;;;;;;7.62;4.40;;;;;;;21.55;60.60;100076.47;4485868;31;34761;-75
2022/08/07 02:11:34;;;;;;;5.50;3.87;;;;;;;21.58;60.11;100072.09;4492959;31;34014;-75
2022/08/07 02:14:24;;;;;;;6.57;4.30;;;;;;;20.44;63.86;100080.94;4489645;31;33895;-75
2022/08/07 02:17:12;;;;;;;8.63;4.37;;;;;;;20.23;64.78;100077.22;4490871;31;33628;-75
2022/08/07 02:19:52;;;;;;;5.78;4.00;;;;;;;21.16;62.15;100072.75;4498672;31;34697;-75
2022/08/07 02:22:35;;;;;;;6.22;4.18;;;;;;;21.83;59.71;100074.84;4496510;31;33639;-75
2022/08/07 02:25:08;;;;;;;6.72;4.15;;;;;;;21.98;59.27;100084.53;4492843;31;33732;-75
2022/08/07 02:27:47;;;;;;;5.87;4.00;;;;;;;21.10;61.77;100091.16;4500454;31;33408;-75
2022/08/07 02:30:19;;;;;;;5.70;3.85;;;;;;;20.37;64.30;100100.16;4492831;31;33952;-75
2022/08/07 02:32:48;;;;;;;5.90;4.10;;;;;;;20.49;63.86;100089.75;4492874;31;34745;-75
2022/08/07 02:35:36;;;;;;;6.00;4.03;;;;;;;20.67;63.22;100094.34;4489553;31;33891;-75
2022/08/07 02:38:28;;;;;;;6.95;4.15;;;;;;;20.88;62.42;100091.00;4497132;31;33360;-75
2022/08/07 02:41:00;;;;;;;6.43;4.20;;;;;;;21.30;61.24;100096.53;4495173;31;34011;-75
2022/08/07 02:43:32;;;;;;;6.43;4.25;;;;;;;20.27;64.91;100093.06;4485224;31;34605;-75
2022/08/07 02:46:01;;;;;;;6.35;4.18;;;;;;;21.44;61.37;100094.91;4490644;31;33914;-75
2022/08/07 02:48:30;;;;;;;6.03;4.18;;;;;;;21.48;60.78;100090.50;4493156;31;35446;-75
2022/08/07 02:51:05;;;;;;;6.28;4.47;;;;;;;20.85;62.67;100105.88;4485324;31;33767;-74
2022/08/07 02:53:33;;;;;;;;;;;;;;;20.46;64.01;100105.53;4494824;31;33947;-75
2022/08/07 02:56:08;;;;;;;7.40;4.90;;;;;;;21.77;60.06;100091.53;4487227;31;33910;-74
2022/08/07 02:58:49;;;;;;;5.57;3.80;;;;;;;21.15;61.65;100097.31;4487249;31;34280;-75
2022/08/07 03:01:19;;;;;;;7.20;4.25;;;;;;;21.46;60.91;100093.16;4493132;31;34619;-75
2022/08/07 03:04:08;;;;;;;5.87;4.28;;;;;;;20.96;62.43;100102.47;4483977;32;33639;-75
2022/08/07 03:06:44;;;;;;;5.82;4.32;;;;;;;21.84;59.55;100088.91;4497148;31;33855;-75
2022/08/07 03:09:13;;;;;;;6.80;3.92;;;;;;;21.39;60.97;100088.69;4492672;31;33448;-75
2022/08/07 03:12:04;;;;;;;6.03;4.03;;;;;;;21.86;59.33;100087.16;4475361;31;33994;-75
2022/08/07 03:14:35;;;;;;;5.50;3.83;;;;;;;21.93;59.10;100095.09;4483714;31;33968;-75
2022/08/07 03:17:04;;;;;;;6.80;4.20;;;;;;;21.63;60.01;100090.56;4489529;31;34130;-74
2022/08/07 03:19:35;;;;;;;6.05;3.97;;;;;;;20.78;62.80;100097.94;4489460;31;34189;-74
2022/08/07 03:22:05;;;;;;;9.25;4.50;;;;;;;21.29;61.34;100089.50;4482383;31;32958;-75
2022/08/07 03:24:33;;;;;;;6.90;4.47;;;;;;;21.98;58.97;100081.91;4481696;31;33233;-75
2022/08/07 03:27:05;;;;;;;6.28;4.28;;;;;;;21.70;59.57;100092.38;4489245;31;33097;-75
2022/08/07 03:29:43;;;;;;;6.30;4.10;;;;;;;21.02;62.22;100089.34;4497224;31;34174;-74
2022/08/07 03:32:28;;;;;;;8.80;4.03;;;;;;;20.88;62.39;100096.25;4498963;31;33886;-75
2022/08/07 03:34:58;;;;;;;6.68;4.43;;;;;;;21.59;60.26;100086.16;4489955;31;33871;-74
2022/08/07 03:37:47;;;;;;;6.43;4.43;;;;;;;21.13;61.75;100088.50;4498634;31;34052;-75
2022/08/07 03:40:23;;;;;;;5.37;4.10;;;;;;;21.22;62.22;100083.31;4500081;31;33199;-75
2022/08/07 03:42:58;;;;;;;6.75;4.32;;;;;;;21.90;59.32;100081.00;4497365;31;33940;-75
2022/08/07 03:45:28;;;;;;;6.05;4.18;;;;;;;21.97;59.02;100085.44;4492517;31;34023;-75
2022/08/07 03:47:59;;;;;;;7.68;3.85;;;;;;;20.81;62.45;100095.31;4499274;31;33882;-75
2022/08/07 03:50:28;;;;;;;6.62;4.32;;;;;;;20.99;62.60;100102.47;4491580;31;33412;-75
2022/08/07 03:52:58;;;;;;;5.90;3.92;;;;;;;21.83;59.80;100108.22;4488831;31;33672;-74
2022/08/07 03:55:28;;;;;;;5.72;4.00;;;;;;;21.16;61.10;100112.25;4495066;31;33591;-75
2022/08/07 03:58:20;;;;;;;6.50;3.92;;;;;;;21.26;60.94;100116.69;4487949;31;33981;-75
2022/08/07 04:01:11;;;;;;;5.65;4.10;;;;;;;21.59;60.10;100115.16;4498793;31;33494;-75
2022/08/07 04:03:43;;;;;;;6.15;4.20;;;;;;;21.60;60.01;100120.44;4491274;31;34418;-75
2022/08/07 04:06:22;;;;;;;7.55;4.47;;;;;;;21.69;59.69;100121.34;4499511;31;34708;-75
2022/08/07 04:09:06;;;;;;;8.63;4.03;;;;;;;21.10;62.02;100135.91;4499986;31;33981;-75
2022/08/07 04:11:43;;;;;;;5.95;3.67;;;;;;;21.14;61.98;100135.94;4500070;31;34181;-75
2022/08/07 04:14:31;;;;;;;6.15;4.22;;;;;;;21.30;61.31;100134.28;4498150;31;33870;-75
2022/08/07 04:17:11;;;;;;;7.22;4.45;;;;;;;20.58;63.84;100139.84;4493994;31;34588;-75
2022/08/07 04:19:49;;;;;;;5.95;4.00;;;;;;;21.22;61.74;100138.63;4499826;31;34507;-76
2022/08/07 04:22:23;;;;;;;6.20;4.25;;;;;;;21.23;62.05;100143.03;4489681;31;34204;-75
2022/08/07 04:24:58;;;;;;;9.10;4.22;;;;;;;20.62;64.01;100152.19;4477681;31;33890;-76
2022/08/07 04:27:28;;;;;;;7.18;4.20;;;;;;;21.70;61.09;100150.38;4492786;31;33818;-75
2022/08/07 04:30:06;;;;;;;6.03;3.90;;;;;;;21.92;60.42;100156.63;4494084;31;33801;-75
2022/08/07 04:32:41;;;;;;;7.62;4.65;;;;;;;21.20;62.74;100158.81;4499154;31;33095;-75
2022/08/07 04:35:15;;;;;;;6.62;4.30;;;;;;;21.26;61.89;100153.59;4487054;31;34391;-75
2022/08/07 04:37:44;;;;;;;9.25;4.12;;;;;;;21.60;61.60;100149.44;4500360;31;33932;-75
2022/08/07 04:40:30;;;;;;;8.02;4.93;;;;;;;21.75;59.85;100146.00;4484158;31;33497;-73
2022/08/07 04:42:59;;;;;;;6.25;4.07;;;;;;;21.00;62.20;100146.38;4500592;31;33496;-75
2022/08/07 04:45:54;;;;;;;7.80;4.53;;;;;;;20.99;63.15;100154.25;4492395;31;34494;-75
2022/08/07 04:48:37;;;;;;;7.60;4.18;;;;;;;20.92;63.73;100163.88;4494924;31;34640;-75
2022/08/07 04:51:27;;;;;;;6.80;4.35;;;;;;;21.79;60.43;100139.88;4485186;31;34769;-75
2022/08/07 04:54:32;;;;;;;10.87;4.57;;;;;;;21.84;60.25;100160.09;4493996;31;33535;-75
2022/08/07 04:57:26;;;;;;;6.15;4.32;;;;;;;21.10;62.63;100162.25;4497135;31;34406;-75
2022/08/07 05:00:23;;;;;;;6.32;4.47;;;;;;;20.54;64.09;100159.09;4488673;31;34060;-75
2022/08/07 05:03:11;;;;;;;7.87;3.92;;;;;;;21.84;59.77;100150.44;4493283;31;33811;-75
2022/08/07 05:06:13;;;;;;;6.18;4.25;;;;;;;21.30;61.61;100160.62;4494897;31;33434;-75
2022/08/07 05:08:49;;;;;;;6.12;3.78;;;;;;;21.90;59.89;100153.09;4485392;31;33698;-75
2022/08/07 05:11:47;;;;;;;5.85;3.80;;;;;;;22.23;58.99;100155.84;4496848;31;34728;-75
2022/08/07 05:14:31;;;;;;;6.28;4.25;;;;;;;21.73;60.53;100162.66;4484224;31;33724;-75
2022/08/07 05:17:21;;;;;;;6.87;4.23;;;;;;;21.28;61.70;100157.09;4487686;31;33840;-75
2022/08/07 05:20:11;;;;;;;6.10;3.75;;;;;;;21.78;60.42;100153.03;4491004;31;33855;-75
2022/08/07 05:22:40;;;;;;;6.22;4.15;;;;;;;20.79;63.63;100162.00;4490305;31;33672;-75
2022/08/07 05:25:10;;;;;;;6.37;4.05;;;;;;;21.06;63.11;100163.13;4490695;31;33890;-75
2022/08/07 05:27:53;;;;;;;;;;;;;;;20.57;64.73;100167.03;4496190;31;33210;-75
2022/08/07 05:30:41;;;;;;;7.12;4.80;;;;;;;20.69;64.94;100181.22;4486055;31;34935;-76
2022/08/07 05:33:10;;;;;;;5.70;4.15;;;;;;;20.34;65.84;100176.41;4497555;31;32991;-76
2022/08/07 05:35:38;;;;;;;6.37;3.70;;;;;;;21.47;62.46;100178.34;4491879;31;33759;-76
2022/08/07 05:38:09;;;;;;;6.30;3.92;;;;;;;21.02;62.61;100176.25;4490989;31;33087;-76
2022/08/07 05:40:38;;;;;;;6.95;4.25;;;;;;;22.02;59.95;100177.75;4487582;31;32579;-76
2022/08/07 05:43:18;;;;;;;6.87;3.90;;;;;;;21.28;61.47;100188.72;4491432;31;33862;-76
2022/08/07 05:46:06;;;;;;;5.78;3.85;;;;;;;21.56;60.98;100178.41;4483659;32;34085;-76
2022/08/07 05:48:34;;;;;;;5.85;4.07;;;;;;;22.56;58.19;100179.72;4488142;31;33615;-76
2022/08/07 05:51:02;;;;;;;7.32;4.20;;;;;;;22.72;57.64;100183.25;4493875;31;33801;-75
2022/08/07 05:53:31;;;;;;;8.38;3.67;;;;;;;22.41;58.61;100182.34;4493286;31;33735;-76
2022/08/07 05:56:20;;;;;;;5.53;3.90;;;;;;;22.57;57.96;100184.13;4485020;31;34032;-76
2022/08/07 05:58:58;;;;;;;6.62;4.05;;;;;;;22.23;59.00;100183.09;4495233;31;34177;-76
2022/08/07 06:01:26;;;;;;;7.20;3.80;;;;;;;22.29;58.45;100177.00;4492974;31;34593;-76
2022/08/07 06:04:04;;;;;;;6.57;3.87;;;;;;;22.73;57.44;100178.84;4490620;31;33937;-76
2022/08/07 06:06:33;;;;;;;5.50;3.58;;;;;;;22.75;57.34;100182.38;4487032;31;34261;-77
2022/08/07 06:09:02;;;;;;;5.43;3.72;;;;;;;21.84;60.13;100187.34;4459734;31;32677;-76
2022/08/07 06:11:33;;;;;;;5.18;3.50;;;;;;;21.58;60.69;100195.12;4499892;31;34005;-76
2022/08/07 06:14:03;;;;;;;6.65;3.70;;;;;;;22.13;59.44;100192.75;4492579;31;32656;-76
2022/08/07 06:16:43;;;;;;;11.20;4.00;;;;;;;22.06;59.44;100190.97;4491197;31;32539;-76
2022/08/07 06:19:18;;;;;;;8.30;3.58;;;;;;;21.49;60.77;100192.44;4489930;31;33408;-76
2022/08/07 06:22:06;;;;;;;5.45;3.25;;;;;;;22.96;56.53;100198.25;4493418;31;33687;-76
2022/08/07 06:24:51;;;;;;;6.22;3.12;;;;;;;23.60;54.34;100195.59;4488043;31;34790;-75
2022/08/07 06:27:28;;;;;;;4.47;2.90;;;;;;;23.80;53.96;100203.50;4487127;31;34433;-75
2022/08/07 06:30:16;;;;;;;5.65;3.40;;;;;;;23.54;53.97;100207.06;4488546;31;32947;-75
2022/08/07 06:33:06;;;;;;;5.82;3.08;;;;;;;23.00;55.66;100214.09;4491231;31;34042;-75
2022/08/07 06:35:42;;;;;;;6.53;3.55;;;;;;;23.29;54.89;100196.50;4487438;31;34615;-76
2022/08/07 06:38:30;;;;;;;6.07;3.70;;;;;;;23.82;53.45;100202.63;4488003;31;34594;-75
2022/08/07 06:40:59;;;;;;;4.95;3.10;;;;;;;22.83;56.30;100206.16;4494848;31;34770;-76
2022/08/07 06:43:28;;;;;;;5.65;3.70;;;;;;;22.68;56.39;100210.56;4485928;31;33980;-76
2022/08/07 06:46:07;;;;;;;8.70;3.85;;;;;;;22.89;56.32;100209.69;4489145;31;34496;-76
2022/08/07 06:48:39;;;;;;;6.18;3.37;;;;;;;23.01;55.56;100216.75;4484996;31;33154;-75
2022/08/07 06:51:16;;;;;;;6.25;3.12;;;;;;;23.75;53.83;100220.22;4495022;31;32147;-76
2022/08/07 06:54:02;;;;;;;7.57;3.60;;;;;;;23.11;54.68;100218.53;4493523;31;33869;-75
2022/08/07 06:56:50;;;;;;;5.68;3.33;;;;;;;23.73;53.84;100216.72;4490216;31;34602;-76
2022/08/07 06:59:26;;;;;;;6.65;3.22;;;;;;;23.68;53.84;100221.16;4489320;31;33929;-76
2022/08/07 07:02:20;;;;;;;5.62;3.15;;;;;;;24.23;52.67;100209.53;4496297;31;32966;-75
2022/08/07 07:05:08;;;;;;;8.95;3.60;;;;;;;22.68;56.15;100213.19;4490009;31;34543;-76
2022/08/07 07:07:39;;;;;;;5.47;2.92;;;;;;;22.91;55.77;100207.94;4488163;31;34755;-77
2022/08/07 07:10:30;;;;;;;4.18;3.10;;;;;;;23.96;53.48;100199.06;4494172;31;33826;-76
2022/08/07 07:13:07;;;;;;;5.32;3.10;;;;;;;23.47;54.01;100205.28;4495065;31;33511;-75
2022/08/07 07:15:41;;;;;;;7.82;2.90;;;;;;;23.35;54.51;100207.09;4494417;31;33903;-76
2022/08/07 07:18:33;;;;;;;5.47;2.80;;;;;;;23.79;53.54;100214.97;4494150;31;34811;-75
2022/08/07 07:21:19;;;;;;;7.03;3.10;;;;;;;23.65;54.03;100207.03;4487727;31;34513;-76
2022/08/07 07:23:47;;;;;;;4.70;3.15;;;;;;;23.60;54.24;100214.09;4490183;31;34550;-75
2022/08/07 07:26:36;;;;;;;4.43;2.97;;;;;;;23.27;55.08;100208.84;4492052;31;34540;-75
2022/08/07 07:29:10;;;;;;;5.10;2.42;;;;;;;24.21;52.13;100215.72;4485290;31;34029;-75
2022/08/07 07:32:01;;;;;;;3.85;2.28;;;;;;;24.28;51.19;100217.44;4492068;31;34770;-75
2022/08/07 07:34:31;;;;;;;3.58;2.28;;;;;;;25.05;49.89;100211.69;4492048;31;33702;-75
2022/08/07 07:37:01;;;;;;;3.92;2.20;;;;;;;24.71;50.72;100210.16;4487359;31;33722;-75
2022/08/07 07:39:52;;;;;;;4.87;2.45;;;;;;;24.38;50.87;100210.31;4494637;31;32509;-75
2022/08/07 07:42:26;;;;;;;4.10;2.40;;;;;;;24.32;51.18;100203.31;4478260;32;32891;-75
2022/08/07 07:45:01;;;;;;;4.10;2.40;;;;;;;25.18;49.10;100196.56;4496058;31;33408;-75
2022/08/07 07:47:30;;;;;;;6.50;2.50;;;;;;;25.22;48.67;100199.19;4488207;31;33928;-74
2022/08/07 07:50:19;;;;;;;6.68;2.28;;;;;;;24.99;49.02;100206.44;4486306;31;33957;-74
2022/08/07 07:53:07;;;;;;;4.72;1.90;;;;;;;25.08;49.64;100206.37;4487776;31;34364;-73
2022/08/07 07:55:52;;;;;;;5.35;2.10;;;;;;;24.58;49.84;100204.97;4475491;31;33426;-74
2022/08/07 07:58:33;;;;;;;4.03;2.17;;;;;;;25.44;48.02;100209.59;4485683;31;33688;-76
2022/08/07 08:01:09;;;;;;;2.70;1.58;;;;;;;26.44;45.35;100206.72;4485899;31;33946;-78
2022/08/07 08:03:59;;;;;;;3.15;2.03;;;;;;;26.71;44.65;100199.25;4497182;31;34716;-76
2022/08/07 08:06:43;;;;;;;6.20;2.17;;;;;;;26.87;44.02;100211.41;4485464;31;33471;-76
2022/08/07 08:09:20;;;;;;;4.32;1.95;;;;;;;26.92;44.16;100208.69;4494009;31;33572;-82
2022/08/07 08:11:52;;;;;;;3.87;1.75;;;;;;;25.64;46.31;100212.06;4500883;31;34709;-77
2022/08/07 08:14:34;;;;;;;3.20;1.62;;;;;;;25.59;46.33;100217.41;4495089;31;33713;-76
2022/08/07 08:17:07;;;;;;;2.92;1.65;;;;;;;27.01;43.41;100207.66;4497618;31;31834;-76
2022/08/07 08:19:58;;;;;;;4.78;1.42;;;;;;;27.71;40.96;100210.00;4491724;31;34021;-76
2022/08/07 08:28:32;;;;;;;3.33;1.50;;;;;;;26.09;43.79;100205.38;4497042;31;33466;-76
2022/08/07 08:31:07;;;;;;;1.87;1.12;;;;;;;26.12;44.05;100201.81;4487454;31;33968;-75
2022/08/07 08:33:45;;;;;;;2.72;1.40;;;;;;;25.79;44.71;100206.59;4485598;31;34023;-75
2022/08/07 08:36:25;;;;;;;3.42;1.42;;;;;;;26.14;43.82;100207.13;4497023;31;34351;-75
2022/08/07 08:38:59;;;;;;;3.00;1.17;;;;;;;26.67;42.27;100201.06;4472036;31;32541;-75
2022/08/07 08:41:52;;;;;;;2.35;1.20;;;;;;;27.22;41.43;100207.31;4485459;31;34171;-75
2022/08/07 08:44:52;;;;;;;3.20;1.30;;;;;;;28.00;39.61;100206.81;4497481;31;34579;-75
2022/08/07 08:47:25;;;;;;;7.07;1.73;;;;;;;29.15;36.90;100206.91;4495634;31;34555;-75
2022/08/07 08:50:28;;;;;;;3.25;1.35;;;;;;;28.87;38.33;100205.81;4492483;31;34043;-75
2022/08/07 08:53:55;;;;;;;2.15;1.23;;;;;;;29.39;36.16;100204.53;4465297;31;33113;-76
2022/08/07 08:56:30;;;;;;;2.20;1.20;;;;;;;29.77;35.93;100202.66;4461245;31;33850;-74
2022/08/07 08:59:12;;;;;;;2.25;1.02;;;;;;;30.60;34.00;100197.53;4490176;31;33692;-75
2022/08/07 09:01:45;;;;;;;1.98;1.30;;;;;;;30.98;33.36;100198.09;4486790;31;34192;-75
2022/08/07 09:04:39;;;;;;;2.72;1.37;;;;;;;31.01;33.42;100195.34;4489460;31;185898;-75
2022/08/07 09:07:41;;;;;;;9.82;1.80;;;;;;;29.62;34.63;100201.22;4492312;31;36997;-75
2022/08/07 09:10:27;;;;;;;2.65;1.40;;;;;;;28.92;36.87;100203.91;4496051;31;34542;-76
2022/08/07 09:13:18;;;;;;;2.83;1.20;;;;;;;30.09;34.80;100195.50;4487865;31;31898;-76
2022/08/07 09:16:12;;;;;;;3.40;1.52;;;;;;;30.81;33.02;100200.44;4486092;31;33982;-75
2022/08/07 09:19:11;;;;;;;2.67;1.40;;;;;;;30.27;34.41;100199.41;4498758;31;33260;-75
2022/08/07 09:22:09;;;;;;;29.17;3.28;;;;;;;28.12;37.65;100205.66;4496766;31;33670;-75
2022/08/07 09:25:05;;;;;;;9.30;2.00;;;;;;;28.95;37.03;100204.69;4484983;31;34297;-76
2022/08/07 09:28:03;;;;;;;3.10;1.70;;;;;;;29.51;36.32;100200.66;4499272;31;34705;-75
2022/08/07 09:30:43;;;;;;;4.47;1.60;;;;;;;28.48;38.17;100200.47;4494682;31;34127;-75
2022/08/07 09:33:44;;;;;;;2.40;1.40;;;;;;;28.47;38.33;100196.03;4484881;31;33911;-76
2022/08/07 09:36:34;;;;;;;2.72;1.40;;;;;;;28.76;37.72;100196.28;4488382;31;33864;-75
2022/08/07 09:39:38;;;;;;;3.85;2.03;;;;;;;28.53;37.53;100196.81;4488436;31;33937;-76
2022/08/07 09:42:47;;;;;;;3.75;2.10;;;;;;;28.59;37.97;100186.00;4487318;31;34401;-75
2022/08/07 09:45:38;;;;;;;3.72;2.10;;;;;;;28.74;38.33;100190.13;4486124;31;34741;-75
2022/08/07 09:48:57;;;;;;;3.70;2.10;;;;;;;28.82;37.98;100190.81;4493004;31;33401;-76
2022/08/07 09:52:15;;;;;;;3.85;2.20;;;;;;;28.10;39.05;100188.84;4493438;31;34583;-75
2022/08/07 09:55:01;;;;;;;4.80;2.40;;;;;;;27.89;39.05;100183.03;4494745;31;35481;-75
2022/08/07 09:57:57;;;;;;;4.35;2.03;;;;;;;29.90;36.27;100185.34;4492524;31;34479;-75
2022/08/07 10:00:29;;;;;;;4.45;2.60;;;;;;;30.58;34.95;100172.66;4496266;31;33300;-75
2022/08/07 10:03:29;;;;;;;3.35;2.17;;;;;;;30.22;34.81;100164.81;4482805;31;33987;-75
2022/08/07 10:06:41;;;;;;;5.75;2.30;;;;;;;30.44;35.33;100164.19;4497389;31;33833;-75
2022/08/07 10:09:49;;;;;;;4.35;2.50;;;;;;;31.04;34.86;100160.47;4490763;31;33287;-75
2022/08/07 10:12:54;;;;;;;4.50;2.55;;;;;;;29.98;36.09;100161.97;4497753;31;34050;-75
2022/08/07 10:15:36;;;;;;;5.05;2.72;;;;;;;29.13;38.39;100159.84;4491282;31;34441;-75
2022/08/07 10:18:34;;;;;;;5.70;3.10;;;;;;;28.69;38.55;100157.34;4490723;31;33746;-74
2022/08/07 10:21:08;;;;;;;3.42;2.37;;;;;;;29.88;36.47;100149.81;4490889;31;33654;-76
2022/08/07 10:24:39;;;;;;;4.62;3.00;;;;;;;30.83;35.30;100148.66;4487736;31;33646;-75
2022/08/07 10:27:46;;;;;;;5.53;2.90;;;;;;;31.52;34.19;100143.66;4487025;31;33940;-75
2022/08/07 10:30:19;;;;;;;16.15;12.27;;;;;;;31.01;34.79;100136.50;4482830;31;34701;-75
2022/08/07 10:33:07;;;;;;;16.25;14.10;;;;;;;31.63;33.19;100142.37;4487897;31;34254;-74
2022/08/07 10:36:08;;;;;;;13.68;9.73;;;;;;;31.06;34.27;100139.88;4491968;31;33162;-75
2022/08/07 10:38:49;;;;;;;4.93;3.75;;;;;;;31.71;32.95;100137.59;4492880;31;33338;-74
2022/08/07 10:41:25;;;;;;;8.45;6.75;;;;;;;30.92;34.35;100131.44;4494262;31;33700;-75
2022/08/07 10:44:20;;;;;;;4.78;3.28;;;;;;;30.56;35.13;100127.25;4500019;31;34654;-75
2022/08/07 10:47:12;;;;;;;5.20;3.55;;;;;;;30.60;35.21;100128.03;4489685;31;33380;-76
2022/08/07 10:49:47;;;;;;;10.73;7.72;;;;;;;29.90;35.61;100121.25;4471300;32;32462;-75
2022/08/07 10:52:26;;;;;;;7.18;4.00;;;;;;;30.08;35.68;100119.81;4489067;31;33514;-75
2022/08/07 10:55:25;;;;;;;4.87;3.47;;;;;;;30.29;35.78;100118.28;4485345;31;33924;-76
2022/08/07 10:58:19;;;;;;;6.97;4.53;;;;;;;29.90;36.71;100113.25;4493081;31;33601;-77
2022/08/07 11:01:07;;;;;;;;;;;;;;;29.92;36.92;100118.53;4494506;31;33875;-79
2022/08/07 11:03:47;;;;;;;6.30;4.03;;;;;;;30.02;36.05;100113.78;4486936;31;33983;-75
2022/08/07 11:06:49;;;;;;;5.32;3.60;;;;;;;30.58;34.88;100112.03;4491993;31;33916;-75
2022/08/07 11:09:41;;;;;;;7.72;4.90;;;;;;;30.99;34.52;100114.25;4475700;31;32768;-75
2022/08/07 11:12:37;;;;;;;4.80;2.50;;;;;;;29.90;35.72;100105.25;4493995;31;34374;-75
2022/08/07 11:15:25;;;;;;;6.05;4.15;;;;;;;30.65;34.08;100107.34;4487033;31;34068;-76
2022/08/07 11:21:11;;;;;;;6.12;3.42;;;;;;;31.76;32.77;100098.13;4355389;32;20225;-73
2022/08/07 11:23:46;;;;;;;5.50;2.90;;;;;;;32.51;30.78;100100.53;4354036;32;34131;-76
2022/08/07 11:26:32;;;;;;;3.60;2.37;;;;;;;32.04;31.54;100089.91;4364290;32;34603;-77
2022/08/07 11:29:10;;;;;;;6.45;2.50;;;;;;;32.49;30.80;100096.16;4358445;32;34376;-77
2022/08/07 11:32:07;;;;;;;5.05;2.90;;;;;;;32.96;30.82;100085.28;4357240;32;34266;-74
2022/08/07 11:34:45;;;;;;;3.72;2.53;;;;;;;33.33;29.68;100078.31;4364065;32;33467;-75
2022/08/07 11:37:36;;;;;;;5.43;3.40;;;;;;;33.71;29.34;100078.41;4360794;32;33541;-76
2022/08/07 11:40:48;;;;;;;4.22;2.30;;;;;;;33.87;29.15;100084.78;4365016;32;34224;-78
2022/08/07 11:43:31;;;;;;;3.95;2.60;;;;;;;34.49;27.69;100081.84;4356945;32;33971;-76
2022/08/07 11:46:43;;;;;;;5.05;2.97;;;;;;;34.35;28.06;100076.28;4359473;32;34026;-76
2022/08/07 11:49:45;;;;;;;4.87;2.95;;;;;;;34.59;27.84;100066.97;4363021;32;33603;-76
2022/08/07 11:53:02;;;;;;;5.18;3.40;;;;;;;34.38;28.08;100065.34;4361643;32;34321;-77
2022/08/07 11:55:56;;;;;;;10.45;6.78;;;;;;;34.30;28.33;100059.50;4347899;32;33276;-76
2022/08/07 11:59:10;;;;;;;5.28;2.97;;;;;;;34.41;28.06;100067.91;4361178;32;33872;-77
2022/08/07 12:02:31;;;;;;;4.20;2.87;;;;;;;33.86;29.00;100056.19;4370209;32;33716;-76
2022/08/07 12:05:26;;;;;;;7.75;2.85;;;;;;;32.57;30.95;100061.00;4363601;32;33717;-75
2022/08/07 12:08:22;;;;;;;4.22;2.40;;;;;;;32.79;30.69;100055.62;4359210;32;33442;-73
2022/08/07 12:11:05;;;;;;;5.70;3.83;;;;;;;33.77;29.56;100040.50;4360747;32;32967;-73
2022/08/07 12:14:07;;;;;;;5.75;3.42;;;;;;;33.99;29.09;100045.69;4359424;32;34590;-76
2022/08/07 12:16:43;;;;;;;4.30;2.50;;;;;;;33.63;29.57;100040.25;4371455;32;33715;-76
2022/08/07 12:19:27;;;;;;;4.18;3.00;;;;;;;33.13;30.15;100038.94;4361798;32;33493;-74
2022/08/07 12:22:29;;;;;;;4.72;2.97;;;;;;;32.58;31.42;100042.19;4361227;32;33777;-73
2022/08/07 12:28:56;;;;;;;6.60;3.00;;;;;;;33.87;29.91;100031.03;4365846;32;34577;-74
2022/08/07 12:31:40;;;;;;;4.60;2.87;;;;;;;33.61;29.31;100026.00;4372395;32;34225;-77
2022/08/07 12:34:32;;;;;;;5.07;3.03;;;;;;;33.28;29.89;100019.47;4360374;32;33714;-76
2022/08/07 12:37:00;;;;;;;6.15;3.17;;;;;;;33.63;29.75;100022.34;4363075;32;34286;-75
2022/08/07 12:39:29;;;;;;;5.72;2.80;;;;;;;33.89;29.41;100018.41;4363245;32;33905;-74
2022/08/07 12:42:11;;;;;;;4.90;3.00;;;;;;;34.19;29.30;100025.97;4352082;32;33408;-75
2022/08/07 12:44:44;;;;;;;4.53;3.05;;;;;;;33.83;29.48;100007.09;4361117;32;34732;-75
2022/08/07 12:47:56;;;;;;;4.70;2.92;;;;;;;34.51;28.82;100010.00;4352588;32;34184;-75